Terminal Aerodrome Forecast
Issued by NWS

Home | Current Version | Previous Version | Graphics & Text | Print | Product List | Glossary On
Versions: 1 2 3 4 5 6 7 8 9 10 11 12 13 14 15 16 17 18 19 20 21 22 23 24 25
234
FTUS42 KMHX 240316 AAD
TAFPGV
TAF AMD
KPGV 240316Z 2403/2424 VRB03KT P6SM SCT080
      TEMPO 2403/2406 4SM BR
     FM241700 26008KT P6SM SCT250
      AMD LTD TO CLD VIS AND WIND=

USA.gov is the U.S. government's official web portal to all federal, state and local government web resources and services.